• Join FlightAware (Why Join?)
  • Login
  • US Flag 
10:00AM EDT


 

Airport Tracker/Info


-or-


 

Live Flight TrackerFlight Track Log ✈ BJS618 ✈ 06-Nov-2013 ✈ KIAD - KPBI

Flight Track Log - Related Links

Times and Time Zones

All times are in EST time to prevent confusion due to time zone crossing. See the BJS618 flight status page for this flight to view local times or setup timezone preferences in your user account.

Time Position Orientation Groundspeed Altitude Reporting Facility
EST Latitude Longitude Course Direction KTS MPH feet Rate Location/Type
09:13AM 38.8833 -77.4333 218° Southwest 174 200 4,900  Level Potomac TRACON
09:14AM 38.8333 -77.4333 180° South 196 226 7,000 2,760 Climbing Potomac TRACON
09:15AM 38.7667 -77.4667 201° Southwest 238 274 10,300 2,880 Climbing Potomac TRACON
09:16AM 38.6833 -77.4833 189° South 302 348 12,900 2,340 Climbing Potomac TRACON
09:17AM 38.6000 -77.5167 197° South 356 410 15,000 1,920 Climbing Potomac TRACON
09:18AM 38.2747 -77.6261 218° Southwest  Level Estimated
09:18AM 38.4906 -77.5731 202° Southwest 364 419 17,300  Level Washington Center
09:19AM 38.4181 -77.6639 224° Southwest 352 405 20,800 3,600 Climbing Washington Center
09:20AM 38.3478 -77.7519 225° Southwest 352 405 24,600 2,880 Climbing Washington Center
09:21AM 38.2775 -77.8372 224° Southwest 352 405 26,700 1,740 Climbing Washington Center
09:22AM 38.1983 -77.9300 223° Southwest 365 420 28,100 1,620 Climbing Washington Center
09:23AM 38.1214 -78.0253 224° Southwest 385 443 29,900 1,740 Climbing Washington Center
09:24AM 38.0381 -78.1228 223° Southwest 390 449 31,700 1,680 Climbing Washington Center
09:25AM 37.9592 -78.2097 221° Southwest 385 443 33,400 1,560 Climbing Washington Center
09:26AM 37.8717 -78.2961 218° Southwest 390 449 34,900 780 Climbing Washington Center
09:27AM 37.7694 -78.3897 216° Southwest 408 470 35,000  Climbing Washington Center
09:28AM 37.6778 -78.4756 217° Southwest 413 475 35,000  Level Washington Center
09:29AM 37.5858 -78.5611 216° Southwest 418 481 35,000 540 Level Washington Center
09:30AM 37.4942 -78.6464 216° Southwest 418 481 36,100 1,380 Climbing Washington Center
09:31AM 37.4106 -78.7269 217° Southwest 418 481 37,900 1,500 Climbing Washington Center
09:32AM 37.3231 -78.8067 216° Southwest 413 475 39,200 1,140 Climbing Washington Center
09:33AM 37.2353 -78.8867 216° Southwest 408 470 40,200 1,020 Climbing Washington Center
09:34AM 37.1475 -78.9689 217° Southwest 408 470 41,300 960 Climbing Washington Center
09:35AM 37.0597 -79.0483 216° Southwest 398 458 42,200 660 Climbing Washington Center
09:36AM 36.9739 -79.1275 216° Southwest 393 452 42,700 360 Climbing Washington Center
09:37AM 36.8772 -79.2167 216° Southwest 393 452 43,000 120 Climbing Washington Center
09:38AM 36.7894 -79.2981 217° Southwest 398 458 43,000  Level Washington Center
09:39AM 36.7011 -79.3794 216° Southwest 398 458 43,000  Level Washington Center
09:40AM 36.6131 -79.4606 216° Southwest 398 458 43,000  Level Washington Center
09:41AM 36.5314 -79.5339 216° Southwest 398 458 43,000  Level Washington Center
09:42AM 36.4431 -79.6147 216° Southwest 398 458 43,000  Level Washington Center
09:44AM 36.2494 -79.7881 216° Southwest 395 455 43,000  Level Atlanta Center
09:45AM 36.1483 -79.8783 216° Southwest 395 455 43,000  Level Atlanta Center
09:46AM 36.0394 -79.9225 198° South 400 460 43,000  Level Atlanta Center
09:47AM 35.9281 -79.9614 196° South 411 473 43,000  Level Atlanta Center
09:48AM 35.8144 -79.9978 195° South 418 481 43,000  Level Atlanta Center
09:49AM 35.7136 -80.0361 197° South 424 488 43,000  Level Atlanta Center
09:50AM 35.5897 -80.0778 195° South 424 488 43,000  Level Atlanta Center
09:51AM 35.4742 -80.1192 196° South 429 494 43,000  Level Atlanta Center
09:52AM 35.3647 -80.1550 195° South 429 494 43,000  Level Atlanta Center
09:53AM 35.2636 -80.1903 196° South 423 487 43,000  Level Atlanta Center
09:55AM 34.9983 -80.2800 195° South 425 489 43,000  Level Jacksonville Center
09:56AM 34.8867 -80.3214 197° South 425 489 43,000  Level Jacksonville Center
09:57AM 34.7644 -80.3578 194° South 425 489 43,000  Level Jacksonville Center
09:58AM 34.6483 -80.3992 196° South 425 489 43,000  Level Jacksonville Center
09:59AM 34.5322 -80.4353 194° South 430 495 43,000  Level Jacksonville Center
10:00AM 34.4183 -80.4711 195° South 430 495 43,000  Level Jacksonville Center
10:01AM 34.3042 -80.5094 196° South 430 495 43,000  Level Jacksonville Center
10:02AM 34.1881 -80.5478 195° South 430 495 43,000  Level Jacksonville Center
10:03AM 34.0742 -80.5861 196° South 430 495 43,000  Level Jacksonville Center
10:04AM 33.9600 -80.6242 195° South 430 495 43,000  Level Jacksonville Center
10:05AM 33.8458 -80.6619 195° South 430 495 43,000  Level Jacksonville Center
10:06AM 33.7317 -80.7000 195° South 430 495 43,000  Level Jacksonville Center
10:07AM 33.6156 -80.7378 195° South 430 495 43,000  Level Jacksonville Center
10:08AM 33.4994 -80.7753 195° South 430 495 43,000  Level Jacksonville Center
10:09AM 33.3853 -80.8131 195° South 430 495 43,000  Level Jacksonville Center
10:10AM 33.2669 -80.8481 194° South 430 495 43,000  Level Jacksonville Center
10:11AM 33.1547 -80.8853 196° South 430 495 43,000  Level Jacksonville Center
10:12AM 33.0364 -80.9203 194° South 430 495 43,000  Level Jacksonville Center
10:13AM 32.9200 -80.9572 195° South 430 495 43,000  Level Jacksonville Center
10:14AM 32.8036 -80.9944 195° South 430 495 43,000  Level Jacksonville Center
10:15AM 32.6872 -81.0314 195° South 430 495 43,000  Level Jacksonville Center
10:16AM 32.5772 -81.0683 196° South 424 488 43,000  Level Jacksonville Center
10:17AM 32.4711 -81.1000 194° South 424 488 43,000  Level Jacksonville Center
10:18AM 32.3403 -81.1419 195° South 442 509 43,000  Level Jacksonville Center
10:19AM 32.2214 -81.1589 187° South 427 491 43,000  Level Jacksonville Center
10:20AM 32.1025 -81.1514 177° South 422 486 43,000  Level Jacksonville Center
10:21AM 31.9814 -81.1511 180° South 428 493 43,000  Level Jacksonville Center
10:22AM 31.8622 -81.1461 178° South 428 493 43,000  Level Jacksonville Center
10:23AM 31.7536 -81.1456 180° South 428 493 43,000  Level Jacksonville Center
10:24AM 31.6242 -81.1456 180° South 428 493 43,000  Level Jacksonville Center
10:25AM 31.5178 -81.1428 179° South 433 498 43,000  Level Jacksonville Center
10:26AM 31.3819 -81.1406 179° South 439 505 43,000  Level Jacksonville Center
10:27AM 31.2608 -81.1403 180° South 439 505 43,000  Level Jacksonville Center
10:28AM 31.1375 -81.1378 179° South 446 513 43,000  Level Jacksonville Center
10:29AM 31.0144 -81.1375 180° South 441 507 43,000  Level Jacksonville Center
10:30AM 30.8933 -81.1325 178° South 441 507 43,000  Level Jacksonville Center
10:31AM 30.7742 -81.1325 180° South 441 507 43,000  Level Jacksonville Center
10:32AM 30.6592 -81.1247 177° South 436 502 43,000  Level Jacksonville Center
10:33AM 30.5400 -81.0958 168° South 436 502 43,000  Level Jacksonville Center
10:34AM 30.4183 -81.0692 169° South 436 502 43,000  Level Jacksonville Center
10:36AM 30.2236 -81.0200 168° South 431 496 43,000  Level Miami Center
10:37AM 30.1033 -80.9939 169° South 431 496 43,000  Level Miami Center
10:38AM 29.9875 -80.9678 169° South 431 496 43,000  Level Miami Center
10:39AM 29.8672 -80.9417 169° South 431 496 43,000  Level Miami Center
10:40AM 29.7494 -80.9133 168° South 436 502 43,000  Level Miami Center
10:41AM 29.6333 -80.8897 170° South 431 496 43,000  Level Miami Center
10:42AM 29.5172 -80.8617 168° South 431 496 43,000  Level Miami Center
10:43AM 29.3867 -80.8378 171° South 424 488 43,000 -780 Level Miami Center
10:44AM 29.2706 -80.8097 168° South 424 488 41,500 -2,280 Descending Miami Center
10:45AM 29.1522 -80.7867 170° South 429 494 38,500 -2,760 Descending Miami Center
10:46AM 29.0347 -80.7444 163° South 429 494 36,000 -1,260 Descending Miami Center
10:47AM 28.9236 -80.6861 155° Southeast 435 501 36,000  Level Miami Center
10:48AM 28.8228 -80.6303 154° Southeast 442 509 36,000 -180 Level Miami Center
10:49AM 28.7117 -80.5744 156° South 442 509 35,700 -1,620 Descending Miami Center
10:50AM 28.5839 -80.5089 156° South 450 518 32,800 -2,700 Descending Miami Center
10:51AM 28.4686 -80.4483 155° Southeast 459 528 30,300 -2,520 Descending Miami Center
10:52AM 28.3492 -80.3903 157° South 459 528 27,800 -2,520 Descending Miami Center
10:53AM 28.2461 -80.3375 156° South 459 528 25,300 -2,400 Descending Miami Center
10:54AM 28.1347 -80.2731 153° Southeast 454 522 23,100 -1,980 Descending Miami Center
10:55AM 28.0342 -80.2017 148° Southeast 412 474 21,400 -1,500 Descending Miami Center
10:56AM 27.9303 -80.1844 172° South 365 420 20,100 -1,320 Descending Miami Center
10:57AM 27.8281 -80.1792 177° South 370 426 18,800 -1,320 Descending Miami Center
10:58AM 27.7386 -80.1697 175° South 363 418 17,500 -1,500 Descending Miami Center
10:59AM 27.6425 -80.1644 177° South 358 412 15,800 -1,980 Descending Miami Center
11:00AM 27.5386 -80.1544 175° South 346 398 13,600 -2,220 Descending Miami Center
11:01AM 27.4425 -80.1469 176° South 346 398 11,400 -1,800 Descending Miami Center
11:02AM 27.3489 -80.1350 174° South 346 398 10,100 -720 Descending Miami Center
11:03AM 27.2614 -80.1256 175° South 346 398 10,000 -480 Descending Miami Center
11:04AM 27.1781 -80.1139 173° South 324 373 9,200 -1,320 Descending Miami Center
11:05AM 27.0906 -80.1044 175° South 296 341 7,400 -1,560 Descending Miami Center
11:06AM 27.0117 -80.0953 174° South 288 331 6,100 -1,080 Descending Miami Center
11:07AM 26.9386 -80.0861 174° South 283 326 5,300 -960 Descending Miami Center
11:08AM 26.8825 -80.0800 174° South 252 290 4,200 -660 Descending Miami Center
11:09AM 26.8236 -80.0947 193° South 231 266 4,000 -240 Descending Miami Center
11:11AM 26.7910 -80.2430 265° West  Level FlightAware Approximate
11:18AM 26.6832 -80.0956 110° East  Level Estimated
11:19AM 26.6832 -80.0956 110° East  Level Estimated
11:20AM 26.6832 -80.0956 110° East  Level Estimated
11:21AM 26.6832 -80.0956 110° East  Level Estimated
11:22AM 26.6832 -80.0956 110° East  Level Estimated
11:23AM 26.6832 -80.0956 110° East  Level Estimated
11:24AM 26.6832 -80.0956 110° East  Level Estimated
11:25AM 26.6832 -80.0956 110° East  Level Estimated
11:26AM 26.6832 -80.0956 110° East  Level Estimated